Time;durP1;ratioP1;P1;durP2;ratioP2;P2;SDS_P1;SDS_P2;PMS_P1;PMS_P2;Temp;Humidity;BMP_temperature;BMP_pressure;BME280_temperature;BME280_humidity;BME280_pressure;Samples;Min_cycle;Max_cycle;Signal;HPM_P1;HPM_P2
2021/07/22 00:00:12;;;;;;;;;;;23.20;74.30;23.30;99841.00;;;;347331;28;83385;-92
2021/07/22 00:00:24;;;;;;;;;;;23.20;74.60;23.20;99843.00;;;;345612;28;91707;-92
2021/07/22 00:00:36;;;;;;;;;;;23.20;74.60;23.20;99836.00;;;;347863;27;82741;-92
2021/07/22 00:00:48;;;;;;;;;;;23.20;74.40;23.20;99845.00;;;;344489;28;91464;-92
2021/07/22 00:01:00;;;;;;;;;;;23.20;74.50;23.20;99841.00;;;;348556;27;83413;-91
2021/07/22 00:01:11;;;;;;;;;;;23.20;74.50;23.30;99842.00;;;;348327;27;91050;-91
2021/07/22 00:01:24;;;;;;;;;;;23.20;74.40;23.30;99835.00;;;;345901;28;83528;-91
2021/07/22 00:01:36;;;;;;;;;;;23.20;74.60;23.30;99844.00;;;;348244;27;92183;-91
2021/07/22 00:01:48;;;;;;;;;;;23.20;74.40;23.20;99838.00;;;;348790;27;82322;-92
2021/07/22 00:02:00;;;;;;;;;;;23.20;74.40;23.10;99840.00;;;;344031;28;92400;-91
2021/07/22 00:02:12;;;;;;;;;;;23.20;74.50;23.20;99840.00;;;;343269;28;82287;-91
2021/07/22 00:02:26;;;;;;;;;;;23.20;74.70;23.20;99843.00;;;;347005;28;91701;-91
2021/07/22 00:02:38;;;;;;;;;;;23.20;74.60;23.20;99839.00;;;;348818;27;83361;-91
2021/07/22 00:02:50;;;;;;;;;;;23.20;74.60;23.10;99840.00;;;;345536;28;90370;-91
2021/07/22 00:03:03;;;;;;;;;;;23.10;74.50;23.10;99839.00;;;;348783;27;83312;-91
2021/07/22 00:03:15;;;;;;;;;;;23.20;74.50;23.20;99838.00;;;;348340;27;91491;-91
2021/07/22 00:03:27;;;;;;;;;;;23.20;74.50;23.20;99834.00;;;;346009;28;83440;-91
2021/07/22 00:03:39;;;;;;;;;;;23.20;74.80;23.10;99840.00;;;;347030;27;92010;-91
2021/07/22 00:04:06;;;;;;;;;;;23.10;74.70;23.20;99846.00;;;;345943;28;83494;-92
2021/07/22 00:04:17;;;;;;;;;;;23.20;74.70;23.30;99843.00;;;;344156;28;92100;-91
2021/07/22 00:04:29;;;;;;;;;;;23.20;74.70;23.20;99844.00;;;;345911;28;83362;-91
2021/07/22 00:04:42;;;;;;;;;;;23.10;74.50;23.20;99846.00;;;;346677;28;89792;-92
2021/07/22 00:04:54;;;;;;;;;;;23.20;74.50;23.20;99846.00;;;;347420;28;83435;-92
2021/07/22 00:05:08;;;;;;;;;;;23.20;74.50;23.20;99843.00;;;;345568;28;90998;-91
2021/07/22 00:05:20;;;;;;;;;;;23.20;74.70;23.30;99843.00;;;;347305;28;82554;-92
2021/07/22 00:05:32;;;;;;;;;;;23.10;74.70;23.30;99845.00;;;;348403;27;89114;-91
2021/07/22 00:05:44;;;;;;;;;;;23.20;74.90;23.20;99845.00;;;;346079;28;82770;-91
2021/07/22 00:05:56;;;;;;;;;;;23.20;74.70;23.30;99850.00;;;;348077;27;93008;-91
2021/07/22 00:06:07;;;;;;;;;;;23.20;74.60;23.20;99844.00;;;;347218;27;83429;-91
2021/07/22 00:06:19;;;;;;;;;;;23.20;74.70;23.30;99851.00;;;;348361;27;91577;-92
2021/07/22 00:06:31;;;;;;;;;;;23.20;74.70;23.30;99848.00;;;;348514;27;83422;-91
2021/07/22 00:06:43;;;;;;;;;;;23.20;74.60;23.20;99847.00;;;;344986;28;90689;-91
2021/07/22 00:06:55;;;;;;;;;;;23.20;74.70;23.30;99845.00;;;;344580;28;83335;-91
2021/07/22 00:07:07;;;;;;;;;;;23.20;74.50;23.30;99847.00;;;;346413;28;91611;-91
2021/07/22 00:07:18;;;;;;;;;;;23.20;74.60;23.30;99849.00;;;;347351;28;83499;-91
2021/07/22 00:07:31;;;;;;;;;;;23.20;75.20;23.20;99846.00;;;;346998;28;90249;-91
2021/07/22 00:07:45;;;;;;;;;;;23.20;74.50;23.20;99845.00;;;;346049;28;83404;-91
2021/07/22 00:08:00;;;;;;;;;;;23.20;74.50;23.30;99851.00;;;;345330;28;92821;-91
2021/07/22 00:08:12;;;;;;;;;;;23.20;74.50;23.30;99848.00;;;;346096;28;83369;-92
2021/07/22 00:08:24;;;;;;;;;;;23.20;74.60;23.30;99851.00;;;;345530;28;90893;-91
2021/07/22 00:08:36;;;;;;;;;;;23.20;74.60;23.40;99847.00;;;;348795;27;83458;-91
2021/07/22 00:08:48;;;;;;;;;;;23.20;74.50;23.30;99844.00;;;;345627;28;91068;-92
2021/07/22 00:09:00;;;;;;;;;;;23.20;74.60;23.40;99847.00;;;;347148;28;83516;-92
2021/07/22 00:09:12;;;;;;;;;;;23.20;74.70;23.40;99846.00;;;;348361;27;91978;-92
2021/07/22 00:09:24;;;;;;;;;;;23.20;74.60;23.30;99846.00;;;;347250;28;83539;-91
2021/07/22 00:09:36;;;;;;;;;;;23.20;74.50;23.20;99845.00;;;;347177;27;89637;-92
2021/07/22 00:09:47;;;;;;;;;;;23.20;74.60;23.20;99845.00;;;;347333;28;83400;-92
2021/07/22 00:09:59;;;;;;;;;;;23.20;74.50;23.20;99847.00;;;;347090;28;91584;-91
2021/07/22 00:10:12;;;;;;;;;;;23.20;74.40;23.30;99851.00;;;;346195;28;83443;-91
2021/07/22 00:10:24;;;;;;;;;;;23.20;75.00;23.30;99848.00;;;;347006;28;91789;-91
2021/07/22 00:10:36;;;;;;;;;;;23.20;74.40;23.30;99852.00;;;;346082;28;82495;-91
2021/07/22 00:10:48;;;;;;;;;;;23.20;74.40;23.30;99852.00;;;;343106;28;90769;-91
2021/07/22 00:11:00;;;;;;;;;;;23.20;74.40;23.30;99856.00;;;;346243;28;83412;-92
2021/07/22 00:11:12;;;;;;;;;;;23.20;74.40;23.20;99848.00;;;;347237;28;92118;-92
2021/07/22 00:11:24;;;;;;;;;;;23.20;74.40;23.10;99851.00;;;;347489;28;84377;-91
2021/07/22 00:11:35;;;;;;;;;;;23.20;74.30;23.10;99845.00;;;;348652;27;91509;-91
2021/07/22 00:11:47;;;;;;;;;;;23.20;74.40;23.10;99847.00;;;;346252;28;82477;-91
2021/07/22 00:11:59;;;;;;;;;;;23.20;74.40;23.10;99841.00;;;;347021;27;92557;-91
2021/07/22 00:12:11;;;;;;;;;;;23.20;74.40;23.00;99848.00;;;;346247;28;83383;-92
2021/07/22 00:12:23;;;;;;;;;;;23.20;74.50;23.10;99843.00;;;;345510;28;91756;-91
2021/07/22 00:12:35;;;;;;;;;;;23.10;74.40;23.20;99844.00;;;;346810;27;87575;-91
2021/07/22 00:12:47;;;;;;;;;;;23.10;74.40;23.20;99840.00;;;;344545;28;90376;-91
2021/07/22 00:12:59;;;;;;;;;;;23.10;74.50;23.10;99846.00;;;;344818;28;83439;-91
2021/07/22 00:13:11;;;;;;;;;;;23.10;74.50;23.20;99847.00;;;;346850;28;97444;-91
2021/07/22 00:13:22;;;;;;;;;;;23.10;74.40;23.20;99849.00;;;;344606;28;83474;-91
2021/07/22 00:13:34;;;;;;;;;;;23.10;74.50;23.20;99841.00;;;;348159;27;97070;-91
2021/07/22 00:13:46;;;;;;;;;;;23.20;74.60;23.10;99844.00;;;;346207;28;83290;-92
2021/07/22 00:13:58;;;;;;;;;;;23.10;74.60;23.20;99844.00;;;;346733;28;97545;-91
2021/07/22 00:14:10;;;;;;;;;;;23.10;74.60;23.10;99846.00;;;;344922;28;82855;-91
2021/07/22 00:14:22;;;;;;;;;;;23.10;74.60;23.20;99847.00;;;;345431;28;95601;-91
2021/07/22 00:14:35;;;;;;;;;;;23.10;74.50;23.10;99849.00;;;;347692;28;83558;-92
2021/07/22 00:14:46;;;;;;;;;;;23.10;74.60;23.20;99840.00;;;;345400;28;95499;-91
2021/07/22 00:14:58;;;;;;;;;;;23.10;74.60;23.20;99844.00;;;;347603;28;82515;-91
2021/07/22 00:15:10;;;;;;;;;;;23.10;74.50;23.20;99842.00;;;;345425;28;96259;-91
2021/07/22 00:15:23;;;;;;;;;;;23.10;74.40;23.20;99847.00;;;;347519;28;83408;-92
2021/07/22 00:15:35;;;;;;;;;;;23.10;74.50;23.10;99846.00;;;;346361;28;97396;-91
2021/07/22 00:15:47;;;;;;;;;;;23.10;74.60;23.00;99845.00;;;;346424;28;83445;-92
2021/07/22 00:15:58;;;;;;;;;;;23.10;74.70;23.00;99848.00;;;;345354;28;96793;-91
2021/07/22 00:16:14;;;;;;;;;;;23.10;74.80;23.00;99841.00;;;;347462;28;83685;-91
2021/07/22 00:16:26;;;;;;;;;;;23.10;74.90;23.10;99843.00;;;;344058;28;96162;-92
2021/07/22 00:16:38;;;;;;;;;;;23.10;74.90;23.10;99846.00;;;;345547;28;83493;-91
2021/07/22 00:16:50;;;;;;;;;;;23.10;74.60;23.10;99843.00;;;;345505;28;95709;-92
2021/07/22 00:17:03;;;;;;;;;;;23.10;74.60;23.20;99846.00;;;;347607;28;82523;-91
2021/07/22 00:17:15;;;;;;;;;;;23.10;74.70;23.00;99850.00;;;;346891;28;96403;-91
2021/07/22 00:17:27;;;;;;;;;;;23.10;74.80;23.10;99844.00;;;;347528;27;83481;-91
2021/07/22 00:17:39;;;;;;;;;;;23.10;74.70;23.20;99847.00;;;;345433;28;96614;-91
2021/07/22 00:17:51;;;;;;;;;;;23.00;74.70;23.20;99841.00;;;;344912;28;83384;-91
2021/07/22 00:18:04;;;;;;;;;;;23.00;74.80;23.20;99849.00;;;;345201;28;97658;-91
2021/07/22 00:18:15;;;;;;;;;;;23.10;74.90;23.20;99848.00;;;;347619;28;82563;-92
2021/07/22 00:18:28;;;;;;;;;;;23.10;74.90;23.10;99844.00;;;;345494;28;97234;-92
2021/07/22 00:18:40;;;;;;;;;;;23.10;74.80;23.10;99847.00;;;;344233;28;83584;-91
2021/07/22 00:18:52;;;;;;;;;;;23.00;74.70;23.10;99841.00;;;;346346;28;96424;-92
2021/07/22 00:19:04;;;;;;;;;;;23.10;74.80;23.20;99847.00;;;;350208;27;82538;-91
2021/07/22 00:19:15;;;;;;;;;;;23.00;74.80;23.20;99844.00;;;;346739;28;97318;-91
2021/07/22 00:19:28;;;;;;;;;;;23.00;74.80;23.20;99839.00;;;;347549;27;82485;-92
2021/07/22 00:19:39;;;;;;;;;;;23.00;74.80;23.20;99842.00;;;;346376;28;95294;-92
2021/07/22 00:19:51;;;;;;;;;;;23.10;74.70;23.20;99840.00;;;;346291;28;82460;-92
2021/07/22 00:20:05;;;;;;;;;;;23.00;74.60;23.00;99847.00;;;;343893;28;97551;-92
2021/07/22 00:20:17;;;;;;;;;;;23.00;75.10;23.00;99847.00;;;;346318;28;82494;-91
2021/07/22 00:20:29;;;;;;;;;;;23.00;74.70;23.00;99848.00;;;;345488;28;96802;-92
2021/07/22 00:20:40;;;;;;;;;;;23.00;74.50;23.10;99841.00;;;;344664;28;83546;-92
2021/07/22 00:20:52;;;;;;;;;;;23.00;74.70;23.20;99836.00;;;;344117;28;96591;-91
2021/07/22 00:21:06;;;;;;;;;;;23.00;74.80;23.20;99841.00;;;;346266;28;82526;-92
2021/07/22 00:21:18;;;;;;;;;;;23.00;74.70;23.20;99847.00;;;;346738;28;96508;-92
2021/07/22 00:21:30;;;;;;;;;;;23.00;74.70;23.20;99843.00;;;;345938;28;83440;-92
2021/07/22 00:21:42;;;;;;;;;;;23.10;74.70;23.20;99845.00;;;;346487;28;96750;-91
2021/07/22 00:21:54;;;;;;;;;;;23.10;74.80;23.20;99844.00;;;;344921;28;83361;-91
2021/07/22 00:22:05;;;;;;;;;;;23.10;74.70;23.20;99843.00;;;;345886;27;97761;-91
2021/07/22 00:22:17;;;;;;;;;;;23.10;74.60;23.20;99837.00;;;;347629;28;83366;-92
2021/07/22 00:22:29;;;;;;;;;;;23.10;74.50;23.20;99841.00;;;;348217;27;97331;-92
2021/07/22 00:22:41;;;;;;;;;;;23.10;74.40;23.20;99849.00;;;;348635;27;82612;-92
2021/07/22 00:22:53;;;;;;;;;;;23.10;74.40;23.20;99845.00;;;;348145;27;95755;-91
2021/07/22 00:23:05;;;;;;;;;;;23.10;74.50;23.20;99839.00;;;;347577;28;83456;-92
2021/07/22 00:23:19;;;;;;;;;;;23.10;74.50;23.30;99850.00;;;;346721;27;95816;-91
2021/07/22 00:23:30;;;;;;;;;;;23.10;74.50;23.30;99858.00;;;;347591;28;83440;-91
2021/07/22 00:23:42;;;;;;;;;;;23.10;74.80;23.30;99841.00;;;;346978;28;93827;-91
2021/07/22 00:23:54;;;;;;;;;;;23.10;74.60;23.20;99845.00;;;;347647;28;83447;-92
2021/07/22 00:24:06;;;;;;;;;;;23.10;74.60;23.10;99852.00;;;;345437;28;97076;-91
2021/07/22 00:24:18;;;;;;;;;;;23.10;74.50;23.20;99846.00;;;;344855;28;82503;-91
2021/07/22 00:24:29;;;;;;;;;;;23.10;74.40;23.20;99846.00;;;;344149;28;94826;-92
2021/07/22 00:24:41;;;;;;;;;;;23.10;74.40;23.20;99851.00;;;;345779;28;83746;-91
2021/07/22 00:24:53;;;;;;;;;;;23.10;74.40;23.00;99846.00;;;;345011;28;97330;-91
2021/07/22 00:25:06;;;;;;;;;;;23.10;74.40;23.10;99846.00;;;;348220;27;83379;-91
2021/07/22 00:25:18;;;;;;;;;;;23.10;74.40;23.10;99839.00;;;;346745;28;96749;-92
2021/07/22 00:25:29;;;;;;;;;;;23.10;74.40;23.10;99847.00;;;;346196;28;83449;-91
2021/07/22 00:25:42;;;;;;;;;;;23.10;74.30;23.10;99849.00;;;;345340;28;96821;-91
2021/07/22 00:25:54;;;;;;;;;;;23.10;74.40;23.10;99855.00;;;;346197;28;82772;-91
2021/07/22 00:26:06;;;;;;;;;;;23.10;74.40;23.10;99850.00;;;;342630;28;96698;-91
2021/07/22 00:26:17;;;;;;;;;;;23.00;74.50;23.10;99846.00;;;;348977;27;83574;-92
2021/07/22 00:26:29;;;;;;;;;;;23.10;74.50;23.20;99844.00;;;;344007;28;95715;-91
2021/07/22 00:26:41;;;;;;;;;;;23.00;74.40;23.20;99848.00;;;;346131;28;83354;-91
2021/07/22 00:26:53;;;;;;;;;;;23.00;74.50;23.20;99846.00;;;;346862;28;95328;-92
2021/07/22 00:27:05;;;;;;;;;;;23.10;74.60;23.20;99848.00;;;;344846;28;83454;-91
2021/07/22 00:27:17;;;;;;;;;;;23.10;74.60;23.20;99839.00;;;;345374;28;95629;-92
2021/07/22 00:27:30;;;;;;;;;;;23.10;74.40;23.10;99851.00;;;;344741;28;82478;-92
2021/07/22 00:27:41;;;;;;;;;;;23.10;74.40;23.10;99845.00;;;;345057;28;96479;-91
2021/07/22 00:27:53;;;;;;;;;;;23.10;74.30;23.20;99846.00;;;;346165;28;82517;-91
2021/07/22 00:28:05;;;;;;;;;;;23.00;74.20;23.10;99854.00;;;;348711;27;97655;-91
2021/07/22 00:28:17;;;;;;;;;;;23.10;74.30;23.00;99848.00;;;;349011;27;83426;-91
2021/07/22 00:28:29;;;;;;;;;;;23.10;74.40;23.10;99851.00;;;;345497;28;96572;-91
2021/07/22 00:28:41;;;;;;;;;;;23.00;74.40;23.10;99847.00;;;;345870;28;83508;-91
2021/07/22 00:28:53;;;;;;;;;;;23.10;74.60;23.10;99850.00;;;;343920;28;96696;-92
2021/07/22 00:29:05;;;;;;;;;;;23.00;74.60;23.10;99840.00;;;;343492;28;83410;-91
2021/07/22 00:29:17;;;;;;;;;;;23.00;74.60;23.10;99849.00;;;;344014;28;97014;-91
2021/07/22 00:29:30;;;;;;;;;;;23.00;74.60;23.20;99847.00;;;;346408;28;83317;-91
2021/07/22 00:29:43;;;;;;;;;;;23.00;74.60;23.10;99846.00;;;;346981;28;96055;-92
2021/07/22 00:29:55;;;;;;;;;;;23.00;74.40;23.20;99849.00;;;;347866;28;82464;-92
2021/07/22 00:30:07;;;;;;;;;;;23.00;74.40;23.20;99839.00;;;;346707;28;97513;-92
2021/07/22 00:30:19;;;;;;;;;;;23.00;74.40;23.20;99850.00;;;;347647;28;82499;-91
2021/07/22 00:30:31;;;;;;;;;;;23.00;74.40;23.10;99841.00;;;;346787;28;96770;-91
2021/07/22 00:30:43;;;;;;;;;;;23.00;74.60;23.00;99843.00;;;;344404;28;82618;-91
2021/07/22 00:30:55;;;;;;;;;;;23.00;74.40;22.90;99850.00;;;;342919;28;97015;-91
2021/07/22 00:31:07;;;;;;;;;;;23.00;74.40;23.00;99841.00;;;;346423;28;82543;-92
2021/07/22 00:31:19;;;;;;;;;;;23.00;74.40;23.00;99843.00;;;;345430;28;96163;-91
2021/07/22 00:31:31;;;;;;;;;;;23.00;74.50;23.10;99846.00;;;;347673;27;83513;-91
2021/07/22 00:31:43;;;;;;;;;;;23.00;74.30;23.00;99839.00;;;;346977;28;97074;-91
2021/07/22 00:31:55;;;;;;;;;;;23.00;74.40;23.00;99844.00;;;;349206;27;83372;-91
2021/07/22 00:32:07;;;;;;;;;;;23.00;74.50;22.90;99850.00;;;;345507;28;98715;-91
2021/07/22 00:32:19;;;;;;;;;;;23.00;74.70;22.90;99846.00;;;;347674;28;83469;-91
2021/07/22 00:32:31;;;;;;;;;;;23.00;74.60;23.00;99843.00;;;;346983;28;96314;-91
2021/07/22 00:32:42;;;;;;;;;;;23.00;74.50;23.00;99846.00;;;;347673;28;83541;-91
2021/07/22 00:32:57;;;;;;;;;;;23.00;74.40;23.00;99847.00;;;;345643;28;96278;-91
2021/07/22 00:33:09;;;;;;;;;;;23.00;74.40;22.90;99851.00;;;;344999;28;83416;-91
2021/07/22 00:33:21;;;;;;;;;;;22.90;74.60;22.80;99844.00;;;;345525;28;95633;-91
2021/07/22 00:33:33;;;;;;;;;;;23.00;74.90;22.90;99846.00;;;;345092;28;83393;-92
2021/07/22 00:33:44;;;;;;;;;;;22.90;74.90;22.90;99848.00;;;;346551;28;97232;-91
2021/07/22 00:33:56;;;;;;;;;;;22.90;74.80;22.80;99841.00;;;;346282;28;83440;-91
2021/07/22 00:34:08;;;;;;;;;;;22.90;74.90;22.90;99849.00;;;;346950;28;97673;-91
2021/07/22 00:34:20;;;;;;;;;;;22.90;74.90;22.90;99844.00;;;;344851;28;83359;-91
2021/07/22 00:34:32;;;;;;;;;;;22.90;74.80;22.90;99844.00;;;;346866;28;96713;-92
2021/07/22 00:34:43;;;;;;;;;;;22.90;75.20;22.90;99851.00;;;;346105;28;83459;-91
2021/07/22 00:34:55;;;;;;;;;;;22.90;75.10;22.80;99842.00;;;;345442;28;96817;-91
2021/07/22 00:35:08;;;;;;;;;;;22.90;75.20;22.70;99843.00;;;;347644;28;82563;-91
2021/07/22 00:35:19;;;;;;;;;;;22.90;75.20;22.70;99842.00;;;;342678;28;94905;-92
2021/07/22 00:35:31;;;;;;;;;;;22.90;75.20;22.80;99847.00;;;;343473;28;82506;-92
2021/07/22 00:35:43;;;;;;;;;;;22.90;75.10;22.80;99835.00;;;;344033;28;97020;-91
2021/07/22 00:35:58;;;;;;;;;;;22.80;74.80;22.70;99833.00;;;;344769;28;83637;-91
2021/07/22 00:36:10;;;;;;;;;;;22.90;75.00;22.70;99839.00;;;;345306;28;97255;-91
2021/07/22 00:36:22;;;;;;;;;;;22.90;75.40;22.70;99843.00;;;;344853;28;82460;-91
2021/07/22 00:36:33;;;;;;;;;;;22.80;75.60;22.70;99843.00;;;;344123;28;97025;-92
2021/07/22 00:36:45;;;;;;;;;;;22.80;75.50;22.90;99843.00;;;;347389;28;83074;-92
2021/07/22 00:36:57;;;;;;;;;;;22.80;75.30;22.90;99842.00;;;;346839;28;94227;-91
2021/07/22 00:37:09;;;;;;;;;;;22.80;75.10;23.00;99843.00;;;;345931;28;83496;-91
2021/07/22 00:37:21;;;;;;;;;;;22.80;75.10;23.00;99844.00;;;;343989;28;96485;-91
2021/07/22 00:37:33;;;;;;;;;;;22.90;75.10;22.90;99846.00;;;;345946;28;82552;-91
2021/07/22 00:37:44;;;;;;;;;;;22.80;74.90;22.80;99838.00;;;;345774;28;95242;-91
2021/07/22 00:37:56;;;;;;;;;;;22.80;75.00;22.70;99837.00;;;;346431;28;83429;-91
2021/07/22 00:38:13;;;;;;;;;;;22.80;75.10;22.80;99841.00;;;;345799;28;97400;-91
2021/07/22 00:38:25;;;;;;;;;;;22.80;75.20;22.80;99842.00;;;;345239;28;82529;-91
2021/07/22 00:38:37;;;;;;;;;;;22.80;75.10;22.70;99832.00;;;;344519;28;95803;-91
2021/07/22 00:38:51;;;;;;;;;;;22.80;75.40;22.80;99845.00;;;;346502;28;83615;-91
2021/07/22 00:39:03;;;;;;;;;;;22.80;75.10;22.80;99839.00;;;;345816;28;96865;-91
2021/07/22 00:39:17;;;;;;;;;;;22.80;75.20;22.80;99847.00;;;;347911;28;83357;-92
2021/07/22 00:39:29;;;;;;;;;;;22.80;75.40;22.70;99838.00;;;;345570;28;96014;-91
2021/07/22 00:39:41;;;;;;;;;;;22.80;75.40;22.70;99838.00;;;;348689;27;83639;-91
2021/07/22 00:39:53;;;;;;;;;;;22.80;75.40;22.80;99839.00;;;;345712;28;95974;-92
2021/07/22 00:40:05;;;;;;;;;;;22.80;75.30;22.80;99837.00;;;;347864;27;83493;-91
2021/07/22 00:40:17;;;;;;;;;;;22.80;75.30;22.80;99837.00;;;;345826;28;97295;-91
2021/07/22 00:40:28;;;;;;;;;;;22.80;75.40;22.70;99842.00;;;;347926;28;83529;-91
2021/07/22 00:40:44;;;;;;;;;;;22.70;75.30;22.60;99838.00;;;;344341;28;96185;-92
2021/07/22 00:40:56;;;;;;;;;;;22.70;75.40;22.70;99838.00;;;;345234;28;83369;-91
2021/07/22 00:41:11;;;;;;;;;;;22.70;75.30;22.70;99834.00;;;;347295;28;96722;-91
2021/07/22 00:41:23;;;;;;;;;;;22.70;75.40;22.60;99838.00;;;;349326;27;83449;-91
2021/07/22 00:41:38;;;;;;;;;;;22.70;75.60;22.60;99833.00;;;;345894;28;95811;-92
2021/07/22 00:41:50;;;;;;;;;;;22.70;75.60;22.60;99839.00;;;;348043;28;82500;-91
2021/07/22 00:42:04;;;;;;;;;;;22.70;75.50;22.60;99834.00;;;;344340;28;96508;-91
2021/07/22 00:42:16;;;;;;;;;;;22.70;75.60;22.60;99838.00;;;;345207;28;83457;-92
2021/07/22 00:42:28;;;;;;;;;;;22.70;75.60;22.60;99832.00;;;;344266;28;98319;-92
2021/07/22 00:43:01;;;;;;;;;;;22.70;75.60;22.60;99839.00;;;;347430;28;83476;-91
2021/07/22 00:43:14;;;;;;;;;;;22.60;75.50;22.60;99837.00;;;;347245;28;97385;-91
2021/07/22 00:43:26;;;;;;;;;;;22.70;75.60;22.60;99839.00;;;;346828;28;83426;-93
2021/07/22 00:43:39;;;;;;;;;;;22.70;75.40;22.60;99839.00;;;;345857;28;95291;-92
2021/07/22 00:43:51;;;;;;;;;;;22.70;75.60;22.60;99838.00;;;;346668;28;82590;-92
2021/07/22 00:44:03;;;;;;;;;;;22.60;75.60;22.60;99838.00;;;;348481;27;96033;-91
2021/07/22 00:44:15;;;;;;;;;;;22.60;75.80;22.50;99837.00;;;;346435;28;83389;-91
2021/07/22 00:44:27;;;;;;;;;;;22.60;75.70;22.60;99838.00;;;;347067;28;97216;-91
2021/07/22 00:44:38;;;;;;;;;;;22.60;75.60;22.70;99840.00;;;;347887;28;82504;-91
2021/07/22 00:44:50;;;;;;;;;;;22.60;75.60;22.80;99837.00;;;;345587;28;95987;-91
2021/07/22 00:45:02;;;;;;;;;;;22.60;75.70;22.80;99837.00;;;;350517;27;83511;-91
2021/07/22 00:45:14;;;;;;;;;;;22.60;75.50;22.70;99840.00;;;;345414;28;97210;-91
2021/07/22 00:45:27;;;;;;;;;;;22.60;75.70;22.70;99840.00;;;;349007;27;82485;-91
2021/07/22 00:45:39;;;;;;;;;;;22.70;75.60;22.70;99839.00;;;;344682;28;96768;-91
2021/07/22 00:45:51;;;;;;;;;;;22.60;75.90;22.70;99840.00;;;;348450;27;82467;-92
2021/07/22 00:46:03;;;;;;;;;;;22.60;75.80;22.80;99832.00;;;;346662;27;96000;-91
2021/07/22 00:46:15;;;;;;;;;;;22.60;75.60;22.60;99833.00;;;;346309;28;83361;-92
2021/07/22 00:46:27;;;;;;;;;;;22.60;75.80;22.60;99837.00;;;;345400;28;95638;-91
2021/07/22 00:46:39;;;;;;;;;;;22.60;75.80;22.70;99834.00;;;;347474;28;83539;-91
2021/07/22 00:46:51;;;;;;;;;;;22.60;75.80;22.60;99834.00;;;;345373;28;97353;-91
2021/07/22 00:47:03;;;;;;;;;;;22.60;76.00;22.60;99840.00;;;;347680;28;82459;-91
2021/07/22 00:47:15;;;;;;;;;;;22.60;76.10;22.70;99837.00;;;;345466;28;96790;-92
2021/07/22 00:47:28;;;;;;;;;;;22.60;75.80;22.80;99841.00;;;;346164;28;82504;-92
2021/07/22 00:47:39;;;;;;;;;;;22.60;75.80;22.80;99831.00;;;;344122;28;95226;-91
2021/07/22 00:47:51;;;;;;;;;;;22.60;75.60;22.70;99838.00;;;;347646;28;83187;-91
2021/07/22 00:48:04;;;;;;;;;;;22.60;75.50;22.60;99845.00;;;;348069;27;96608;-91
2021/07/22 00:48:16;;;;;;;;;;;22.60;75.60;22.70;99840.00;;;;349039;27;83323;-92
2021/07/22 00:48:28;;;;;;;;;;;22.60;75.80;22.70;99840.00;;;;348219;27;96936;-92
2021/07/22 00:48:40;;;;;;;;;;;22.60;75.80;22.80;99838.00;;;;345780;28;82668;-92
2021/07/22 00:48:52;;;;;;;;;;;22.60;75.80;22.80;99834.00;;;;347695;27;96585;-92
2021/07/22 00:49:08;;;;;;;;;;;22.60;75.70;22.90;99842.00;;;;350222;27;82396;-92
2021/07/22 00:49:20;;;;;;;;;;;22.60;75.50;22.80;99844.00;;;;346767;27;95460;-91
2021/07/22 00:49:31;;;;;;;;;;;22.60;75.50;22.90;99840.00;;;;348904;27;83512;-91
2021/07/22 00:49:46;;;;;;;;;;;22.70;75.60;22.80;99841.00;;;;345439;28;96591;-91
2021/07/22 00:50:00;;;;;;;;;;;22.70;75.60;22.60;99841.00;;;;344743;28;83326;-92
2021/07/22 00:50:12;;;;;;;;;;;22.70;75.60;22.80;99838.00;;;;344022;28;96303;-91
2021/07/22 00:50:24;;;;;;;;;;;22.60;75.50;22.80;99833.00;;;;344912;28;82459;-91
2021/07/22 00:50:36;;;;;;;;;;;22.60;75.50;22.80;99843.00;;;;343938;28;96987;-92
2021/07/22 00:50:48;;;;;;;;;;;22.70;75.60;22.90;99846.00;;;;346207;28;83512;-91
2021/07/22 00:51:00;;;;;;;;;;;22.70;75.50;22.90;99846.00;;;;345405;28;97209;-92
2021/07/22 00:51:11;;;;;;;;;;;22.60;75.50;22.90;99846.00;;;;344812;28;83462;-91
2021/07/22 00:51:23;;;;;;;;;;;22.70;75.60;22.90;99849.00;;;;342578;28;95356;-91
2021/07/22 00:51:36;;;;;;;;;;;22.70;75.50;22.90;99844.00;;;;345667;28;83880;-91
2021/07/22 00:51:47;;;;;;;;;;;22.70;75.40;22.90;99851.00;;;;343364;28;97402;-92
2021/07/22 00:51:59;;;;;;;;;;;22.70;75.30;23.00;99836.00;;;;347557;28;82546;-91
2021/07/22 00:52:12;;;;;;;;;;;22.70;75.30;22.90;99840.00;;;;346748;27;96448;-92
2021/07/22 00:52:23;;;;;;;;;;;22.70;75.40;22.90;99845.00;;;;346309;28;83402;-91
2021/07/22 00:52:35;;;;;;;;;;;22.70;75.20;22.90;99838.00;;;;347076;27;96917;-91
2021/07/22 00:52:47;;;;;;;;;;;22.70;75.20;22.90;99849.00;;;;347469;28;83479;-91
2021/07/22 00:52:59;;;;;;;;;;;22.70;75.10;23.00;99850.00;;;;345347;28;96717;-91
2021/07/22 00:53:11;;;;;;;;;;;22.70;75.10;23.00;99840.00;;;;346252;28;83456;-91
2021/07/22 00:53:23;;;;;;;;;;;22.70;75.10;23.00;99847.00;;;;348162;27;96774;-91
2021/07/22 00:53:35;;;;;;;;;;;22.70;75.00;23.00;99842.00;;;;347575;28;82551;-92
2021/07/22 00:53:47;;;;;;;;;;;22.70;75.00;23.00;99840.00;;;;344077;28;96323;-91
2021/07/22 00:53:59;;;;;;;;;;;22.80;75.10;23.00;99843.00;;;;346138;28;82529;-91
2021/07/22 00:54:11;;;;;;;;;;;22.70;75.00;23.00;99846.00;;;;346830;28;95484;-91
2021/07/22 00:54:23;;;;;;;;;;;22.80;75.00;22.90;99844.00;;;;347334;28;82427;-91
2021/07/22 00:54:35;;;;;;;;;;;22.70;74.90;22.90;99841.00;;;;345220;28;96804;-91
2021/07/22 00:54:48;;;;;;;;;;;22.80;74.80;22.90;99839.00;;;;344991;28;83415;-91
2021/07/22 00:55:00;;;;;;;;;;;22.70;74.90;22.80;99844.00;;;;345335;28;96816;-91
2021/07/22 00:55:18;;;;;;;;;;;22.80;74.90;22.80;99844.00;;;;344850;28;83473;-91
2021/07/22 00:55:30;;;;;;;;;;;22.80;75.00;22.80;99850.00;;;;344096;28;95603;-91
2021/07/22 00:55:42;;;;;;;;;;;22.80;75.10;22.90;99840.00;;;;348843;27;83527;-92
2021/07/22 00:55:54;;;;;;;;;;;22.70;75.00;22.80;99843.00;;;;348168;27;96541;-91
2021/07/22 00:56:06;;;;;;;;;;;22.70;75.10;22.80;99843.00;;;;347495;27;82527;-91
2021/07/22 00:56:17;;;;;;;;;;;22.70;75.00;22.90;99846.00;;;;346865;28;95787;-92
2021/07/22 00:56:30;;;;;;;;;;;22.70;75.00;22.90;99842.00;;;;347638;28;83409;-91
2021/07/22 00:56:41;;;;;;;;;;;22.80;75.00;22.80;99840.00;;;;348168;27;96743;-91
2021/07/22 00:56:53;;;;;;;;;;;22.70;75.00;22.80;99841.00;;;;347373;28;83413;-91
2021/07/22 00:57:05;;;;;;;;;;;22.70;75.10;22.70;99845.00;;;;345349;28;98180;-91
2021/07/22 00:57:17;;;;;;;;;;;22.70;75.00;22.70;99840.00;;;;346154;28;82581;-92
2021/07/22 00:57:30;;;;;;;;;;;22.70;74.80;22.80;99844.00;;;;346610;28;95772;-91
2021/07/22 00:57:42;;;;;;;;;;;22.70;74.90;22.70;99842.00;;;;345910;28;82593;-91
2021/07/22 00:57:54;;;;;;;;;;;22.70;75.00;22.70;99846.00;;;;346817;28;96957;-92
2021/07/22 00:58:05;;;;;;;;;;;22.70;75.00;22.80;99843.00;;;;347460;28;85745;-91
2021/07/22 00:58:17;;;;;;;;;;;22.70;74.80;22.80;99845.00;;;;345126;28;95940;-91
2021/07/22 00:58:29;;;;;;;;;;;22.70;74.80;22.70;99843.00;;;;344797;28;83412;-91
2021/07/22 00:58:41;;;;;;;;;;;22.70;74.80;22.70;99845.00;;;;345219;28;96876;-91
2021/07/22 00:58:54;;;;;;;;;;;22.70;74.90;22.70;99845.00;;;;346164;28;83507;-91
2021/07/22 00:59:05;;;;;;;;;;;22.70;74.80;22.70;99845.00;;;;345329;28;97495;-91
2021/07/22 00:59:17;;;;;;;;;;;22.80;75.00;22.70;99846.00;;;;346137;28;82568;-91
2021/07/22 00:59:29;;;;;;;;;;;22.70;74.90;22.70;99854.00;;;;345412;28;96422;-91
2021/07/22 00:59:41;;;;;;;;;;;22.80;74.80;22.50;99840.00;;;;344812;28;83387;-91
2021/07/22 00:59:53;;;;;;;;;;;22.70;74.90;22.60;99847.00;;;;345409;28;96569;-91
2021/07/22 01:00:05;;;;;;;;;;;22.70;74.70;22.60;99843.00;;;;346059;28;83525;-91
2021/07/22 01:00:17;;;;;;;;;;;22.70;74.60;22.70;99839.00;;;;346794;28;95734;-91
2021/07/22 01:00:29;;;;;;;;;;;22.70;74.60;22.70;99841.00;;;;344823;28;83435;-92
2021/07/22 01:00:41;;;;;;;;;;;22.70;74.80;22.70;99848.00;;;;346653;28;94209;-92
2021/07/22 01:00:53;;;;;;;;;;;22.70;74.70;22.70;99840.00;;;;348637;27;82491;-91